Bei Facebook empfehlenBei Twitter postenGoogle plusPinterest

Das Wetter im Erzgebirge am 26.05.2017

Wetter und Klima am 26.05.2017 Holzhau im Erzgebirge (630m ü.NN)
Letzte gemessene Temperatur und Uhrzeit der Messung23:45:00 Uhr8.80 °C
Temperatur (Maximum / Höchstwert) und Uhrzeit der Messung16:30:00 Uhr21.50 °C
Temperatur (Minimum / Tiefstwert) und Uhrzeit der Messung00:45:004.40 °C
Errechneter Absolutwert der Temperaturschwankungen zwischen Tmin und Tmax des Tages17.10 K
Errechnete Tagesmitteltemperatur13.16771 °C
Gesamt - Niederschlag des Tages (in flüssiger Form)0.00 Liter / m²
Luftdruck (Maximum / Höchstwert) und Zeitpunkt der Messung12:30:00 Uhr1019.60 hPa
Luftdruck (Minimum / Tiefstwert) und Zeitpunkt der Messung18:45:00 Uhr1018.00 hPa
Errechneter Absolutwert der Luftdruckschwankungen des Tages1.60 hPa
Höchste gemessene Windgeschwindigkeit und Uhrzeit der Messung11:15:00 Uhr37.44 km/h
Errechnete Windhäufigkeit in Relation zu den Messwerten des Tages10.41667 %
Niedrigste Windkühle (Windchill) und Zeitpunkt der Messung00:45:00 Uhr4.40 °C
Taupunkt (Maximum / Höchstwert) und Uhrzeit der Messung11:15:00 Uhr13.10 °C
Taupunkt (Minimum / Tiefstwert) und Uhrzeit der Messung00:30:002.60 °C
Anzahl der automatisch eingelesenen Messwerte 96

Detaillierte Wetter- und Klima- Messwerte für den 26.05.2017 in Holzhau im Erzgebirge (630m ü.NN)
ZeitTemperaturLuftdruckRel. LuftfeuchteWindWindrichtungWindchillTaupunktNiederschlag l/m²
23:45:008.80 °C1019.50 hPa87.00 %6.80 °C 
23:30:009.10 °C1019.40 hPa87.00 %7.10 °C 
23:15:009.30 °C1019.30 hPa86.00 %7.10 °C 
23:00:009.60 °C1019.10 hPa84.00 %7.00 °C 
22:45:009.90 °C1019.10 hPa83.00 %7.20 °C 
22:30:0010.40 °C1018.90 hPa82.00 %7.50 °C 
22:15:0010.90 °C1018.90 hPa82.00 %8.00 °C 
22:00:0011.30 °C1018.70 hPa79.00 %7.80 °C 
21:45:0012.00 °C1018.80 hPa77.00 %8.10 °C 
21:30:0012.90 °C1018.60 hPa75.00 %8.60 °C 
21:15:0013.80 °C1018.60 hPa72.00 %8.80 °C 
21:00:0015.00 °C1018.40 hPa70.00 %9.60 °C 
20:45:0016.20 °C1018.30 hPa68.00 %10.30 °C 
20:30:0017.30 °C1018.20 hPa66.00 %10.90 °C 
20:15:0017.60 °C1018.30 hPa64.00 %10.70 °C 
20:00:0018.10 °C1018.30 hPa64.00 %11.20 °C 
19:45:0018.40 °C1018.10 hPa63.00 %11.20 °C 
19:30:0018.80 °C1018.30 hPa63.00 %11.60 °C 
19:15:0018.90 °C1018.10 hPa62.00 %11.50 °C 
19:00:0018.70 °C1018.20 hPa62.00 %11.30 °C 
18:45:0019.10 °C1018.00 hPa61.00 %11.40 °C 
18:30:0019.20 °C1018.20 hPa62.00 %11.70 °C 
18:15:0018.90 °C1018.00 hPa61.00 %11.20 °C 
18:00:0018.90 °C1018.30 hPa60.00 %11.00 °C 
17:45:0019.50 °C1018.40 hPa58.00 %11.00 °C 
17:30:0020.20 °C1018.40 hPa58.00 %11.70 °C 
17:15:0019.60 °C1018.50 hPa59.00 %11.40 °C 
17:00:0020.30 °C1018.50 hPa58.00 %11.80 °C 
16:45:0021.40 °C1018.70 hPa55.00 %12.00 °C 
16:30:0021.50 °C1018.60 hPa55.00 %12.10 °C 
16:15:0021.20 °C1018.70 hPa58.00 %12.60 °C 
16:00:0021.10 °C1018.70 hPa57.00 %12.30 °C 
15:45:0021.40 °C1018.80 hPa56.00 %12.30 °C 
15:30:0021.20 °C1018.70 hPa58.00 %12.60 °C 
15:15:0020.30 °C1018.90 hPa59.00 %21.96 km/hW21.30 °C12.00 °C 
15:00:0019.60 °C1018.90 hPa61.00 %30.96 km/hSO20.20 °C11.90 °C 
14:45:0019.90 °C1019.10 hPa59.00 %11.70 °C 
14:30:0019.90 °C1019.30 hPa61.00 %28.44 km/hO20.60 °C12.20 °C 
14:15:0019.40 °C1019.30 hPa60.00 %11.40 °C 
14:00:0019.90 °C1019.40 hPa59.00 %11.70 °C 
13:45:0019.90 °C1019.40 hPa62.00 %12.40 °C 
13:30:0019.80 °C1019.40 hPa61.00 %12.10 °C 
13:15:0019.80 °C1019.40 hPa63.00 %9.00 km/hWNW19.80 °C12.60 °C 
13:00:0019.40 °C1019.50 hPa63.00 %12.20 °C 
12:45:0019.60 °C1019.40 hPa62.00 %7.92 km/hSW19.60 °C12.10 °C 
12:30:0019.10 °C1019.60 hPa63.00 %11.90 °C 
12:15:0019.40 °C1019.50 hPa64.00 %12.40 °C 
12:00:0019.10 °C1019.50 hPa67.00 %12.80 °C 
11:45:0018.30 °C1019.50 hPa68.00 %9.00 km/hW18.30 °C12.30 °C 
11:30:0018.60 °C1019.30 hPa69.00 %7.92 km/hN18.60 °C12.80 °C 
11:15:0017.80 °C1019.50 hPa74.00 %37.44 km/hWNW17.90 °C13.10 °C 
11:00:0016.90 °C1019.50 hPa78.00 %27.36 km/hNW17.20 °C13.00 °C 
10:45:0015.90 °C1019.40 hPa78.00 %12.10 °C 
10:30:0015.80 °C1019.20 hPa79.00 %12.96 km/hWSW15.80 °C12.20 °C 
10:15:0015.30 °C1019.30 hPa80.00 %11.90 °C 
10:00:0015.10 °C1019.30 hPa82.00 %12.10 °C 
09:45:0014.10 °C1019.20 hPa86.00 %11.80 °C 
09:30:0013.40 °C1019.40 hPa87.00 %11.30 °C 
09:15:0012.80 °C1019.00 hPa89.00 %11.00 °C 
09:00:0012.10 °C1019.10 hPa89.00 %10.30 °C 
08:45:0011.80 °C1018.90 hPa89.00 %10.00 °C 
08:30:0011.60 °C1018.60 hPa90.00 %10.00 °C 
08:15:0011.20 °C1018.70 hPa90.00 %9.60 °C 
08:00:0010.80 °C1018.70 hPa90.00 %9.20 °C 
07:45:0010.70 °C1018.60 hPa90.00 %9.10 °C 
07:30:0010.30 °C1018.60 hPa91.00 %8.90 °C 
07:15:009.60 °C1018.60 hPa92.00 %8.40 °C 
07:00:009.10 °C1018.50 hPa92.00 %7.90 °C 
06:45:008.30 °C1018.60 hPa93.00 %7.20 °C 
06:30:007.30 °C1018.50 hPa92.00 %6.10 °C 
06:15:006.10 °C1018.50 hPa91.00 %4.70 °C 
06:00:005.60 °C1018.40 hPa91.00 %4.20 °C 
05:45:005.10 °C1018.40 hPa91.00 %3.80 °C 
05:30:004.80 °C1018.40 hPa90.00 %3.30 °C 
05:15:004.80 °C1018.40 hPa90.00 %3.30 °C 
05:00:004.90 °C1018.40 hPa90.00 %3.40 °C 
04:45:004.90 °C1018.40 hPa89.00 %3.20 °C 
04:30:004.90 °C1018.50 hPa89.00 %3.20 °C 
04:15:005.30 °C1018.40 hPa89.00 %3.60 °C 
04:00:005.60 °C1018.50 hPa89.00 %3.90 °C 
03:45:005.90 °C1018.40 hPa88.00 %4.10 °C 
03:30:006.20 °C1018.60 hPa87.00 %4.20 °C 
03:15:006.60 °C1018.50 hPa88.00 %4.80 °C 
03:00:006.80 °C1018.50 hPa89.00 %5.10 °C 
02:45:006.60 °C1018.60 hPa89.00 %4.90 °C 
02:30:006.40 °C1018.50 hPa89.00 %4.70 °C 
02:15:006.10 °C1018.60 hPa90.00 %4.60 °C 
02:00:005.90 °C1018.60 hPa90.00 %4.40 °C 
01:45:005.60 °C1018.50 hPa90.00 %4.10 °C 
01:30:005.40 °C1018.40 hPa90.00 %3.90 °C 
01:15:005.30 °C1018.60 hPa90.00 %3.80 °C 
01:00:004.90 °C1018.60 hPa90.00 %3.40 °C 
00:45:004.40 °C1018.60 hPa89.00 %2.80 °C 
00:30:004.40 °C1018.60 hPa88.00 %2.60 °C 
00:15:004.60 °C1018.80 hPa88.00 %2.80 °C 
00:00:004.60 °C1018.70 hPa87.00 %2.60 °C 

Permanenter Link zu dieser Seite: Wetter im Erzgebirge am 26.05.2017
Performance-Info: Die Erstellung der Seite / Statistik(en) / Tabelle(n) erforderte 5 Datenbankserver-Abfrage(n) und dauerte 98 Millisekunden. (Dieser Messwert ist von der Gesamt-Auslastung des Servers abhängig.)
Erzgebirge - Wetter | Erzgebirge - Wetter (Mobilgeräte) | Komplette Klimadatenbank